USTRANSCOM 7736


OKBK
Kuwait International Airport
Kuwait City, KW
ETAR
Ramstein Air Force Base
Ramstein, DE

Route Details

Aircraft Information
Primary: Boeing 767-300BDSF
Backup: Not Available
Route Data
Distance: 2299nm
Sched. Duration: 5h 30m
Avg. Duration: 5h 80m (+50m)
Times Flown: 2
Recm'd Route: RALKA3F RALKA G795 TASMI L602 ALPET UM860 SRT UG8 ULSAB UT334 INB UL746 ODERO T86 MATEL T746 NEPOT L746 EVRIK L850 BUDOP LAMSI L604 SULUS L984 FFM
Planned Altitude: 34,000ft
Origin Wx: OKBK 291900Z 18004KT 5000 -HZ SKC 20/M03 Q1017 NOSIG
Dest. Wx: ETAR 291857Z 22006KT 9999 -RA BKN014 BKN021 OVC028 11/11 A3015 RMK AO2A SLP216 FZRANO $
Notes: USTRANSCOM CONTRACT FLIGHT

Financial History
Total Freight: 167,704lbs
Average Load: 83,852lbs/flt
Fuel Used: 127,237lbs
Avg. Fuel Used: 63,619lbs/flt
Fuel Expense: $43,261
Avg. Fuel Expense: $21,630
Avg. Fuel Cost: $0.34/lbs
Total Gross Income: $389,073
Pilot Pay: $458
Total Expenses: $42,124
Total Revenue: $300,813
Average Revenue: $194,536.64